CheckWX is a tool to help pilots better visualize weather data.  It is not intended as a substitute for an official pre-flight weather briefing.

23:34:29 UTC

KCKB TAF
North Central West Virginia Airport
Clarksburg, West Virginia, USA
KCKB 181720Z 1818/1918 31005KT P6SM SCT040 FM182100 VRB03KT P6SM SKC FM191100 00000KT 6SM BR SKC FM191400 00000KT P6SM FEW250

Oct-18@
18:00 UTC

Oct-18 @ 18:00 UTC

Oct-18@
21:00 UTC

Oct-18 @ 21:00 UTC

KCKB 181720Z 1818/1918 31005KT P6SM SCT040

Expired

Wind
  • 310° at 5 KTS
Cloud Levels
  • Scattered at 4,000' AGL

Oct-18@
21:00 UTC

Oct-18 @ 21:00 UTC

Oct-19@
11:00 UTC

Oct-19 @ 11:00 UTC

FM182100 VRB03KT P6SM SKC

From

From Standard forecast or significant change

Wind
  • Variable at 3 KTS
Cloud Levels
  • Clear skies

Oct-19@
11:00 UTC

Oct-19 @ 11:00 UTC

Oct-19@
14:00 UTC

Oct-19 @ 14:00 UTC

FM191100 00000KT 6SM BR SKC

From

From Standard forecast or significant change

Conditions
Mist
Cloud Levels
  • Clear skies

Oct-19@
14:00 UTC

Oct-19 @ 14:00 UTC

Oct-19@
18:00 UTC

Oct-19 @ 18:00 UTC

FM191400 00000KT P6SM FEW250

From

From Standard forecast or significant change

Cloud Levels
  • Few at 25,000' AGL